sensor_id;sensor_type;location;lat;lon;timestamp;temperature;humidity
10901;DHT22;5503;53.208;10.392;2022-09-09T00:00:36;13.80;99.90
10901;DHT22;5503;53.208;10.392;2022-09-09T00:03:07;13.90;99.90
10901;DHT22;5503;53.208;10.392;2022-09-09T00:05:38;14.00;99.90
10901;DHT22;5503;53.208;10.392;2022-09-09T00:08:07;14.10;99.90
10901;DHT22;5503;53.208;10.392;2022-09-09T00:10:41;15.60;99.90
10901;DHT22;5503;53.208;10.392;2022-09-09T00:13:13;14.10;99.90
10901;DHT22;5503;53.208;10.392;2022-09-09T00:15:44;14.20;99.90
10901;DHT22;5503;53.208;10.392;2022-09-09T00:18:15;14.20;99.90
10901;DHT22;5503;53.208;10.392;2022-09-09T00:20:47;14.10;99.90
10901;DHT22;5503;53.208;10.392;2022-09-09T00:23:17;14.20;99.90
10901;DHT22;5503;53.208;10.392;2022-09-09T00:25:47;14.20;99.90
10901;DHT22;5503;53.208;10.392;2022-09-09T00:28:16;15.60;99.90
10901;DHT22;5503;53.208;10.392;2022-09-09T00:30:44;14.10;99.90
10901;DHT22;5503;53.208;10.392;2022-09-09T00:33:13;14.00;99.90
10901;DHT22;5503;53.208;10.392;2022-09-09T00:35:42;17.90;99.90
10901;DHT22;5503;53.208;10.392;2022-09-09T00:38:12;13.90;99.90
10901;DHT22;5503;53.208;10.392;2022-09-09T00:40:41;13.90;99.90
10901;DHT22;5503;53.208;10.392;2022-09-09T00:43:14;14.00;99.90
10901;DHT22;5503;53.208;10.392;2022-09-09T00:45:52;14.80;99.90
10901;DHT22;5503;53.208;10.392;2022-09-09T00:48:22;14.00;99.90
10901;DHT22;5503;53.208;10.392;2022-09-09T00:50:55;13.90;99.90
10901;DHT22;5503;53.208;10.392;2022-09-09T00:53:30;13.80;99.90
10901;DHT22;5503;53.208;10.392;2022-09-09T00:56:06;16.10;99.90
10901;DHT22;5503;53.208;10.392;2022-09-09T00:58:35;13.80;99.90
10901;DHT22;5503;53.208;10.392;2022-09-09T01:01:03;13.70;99.90
10901;DHT22;5503;53.208;10.392;2022-09-09T01:03:34;13.70;99.90
10901;DHT22;5503;53.208;10.392;2022-09-09T01:06:02;13.70;99.90
10901;DHT22;5503;53.208;10.392;2022-09-09T01:08:39;13.70;99.90
10901;DHT22;5503;53.208;10.392;2022-09-09T01:11:10;13.70;99.90
10901;DHT22;5503;53.208;10.392;2022-09-09T01:13:41;13.70;99.90
10901;DHT22;5503;53.208;10.392;2022-09-09T01:16:08;13.60;99.90
10901;DHT22;5503;53.208;10.392;2022-09-09T01:18:37;13.50;99.90
10901;DHT22;5503;53.208;10.392;2022-09-09T01:21:07;13.50;99.90
10901;DHT22;5503;53.208;10.392;2022-09-09T01:23:48;13.40;99.90
10901;DHT22;5503;53.208;10.392;2022-09-09T01:26:21;11.40;99.90
10901;DHT22;5503;53.208;10.392;2022-09-09T01:28:48;13.50;99.90
10901;DHT22;5503;53.208;10.392;2022-09-09T01:31:19;13.60;99.90
10901;DHT22;5503;53.208;10.392;2022-09-09T01:33:46;14.70;99.90
10901;DHT22;5503;53.208;10.392;2022-09-09T01:36:15;13.60;99.90
10901;DHT22;5503;53.208;10.392;2022-09-09T01:38:45;13.70;99.90
10901;DHT22;5503;53.208;10.392;2022-09-09T01:41:11;13.70;99.90
10901;DHT22;5503;53.208;10.392;2022-09-09T01:43:40;13.50;99.90
10901;DHT22;5503;53.208;10.392;2022-09-09T01:46:06;13.60;99.90
10901;DHT22;5503;53.208;10.392;2022-09-09T01:48:33;15.50;99.90
10901;DHT22;5503;53.208;10.392;2022-09-09T01:51:00;13.40;99.90
10901;DHT22;5503;53.208;10.392;2022-09-09T01:53:27;13.40;99.90
10901;DHT22;5503;53.208;10.392;2022-09-09T01:55:59;13.50;99.90
10901;DHT22;5503;53.208;10.392;2022-09-09T01:58:31;13.60;99.90
10901;DHT22;5503;53.208;10.392;2022-09-09T02:01:02;13.60;99.90
10901;DHT22;5503;53.208;10.392;2022-09-09T02:03:34;13.70;99.90
10901;DHT22;5503;53.208;10.392;2022-09-09T02:06:04;13.60;99.90
10901;DHT22;5503;53.208;10.392;2022-09-09T02:08:33;13.70;99.90
10901;DHT22;5503;53.208;10.392;2022-09-09T02:13:40;13.60;99.90
10901;DHT22;5503;53.208;10.392;2022-09-09T02:16:08;13.60;99.90
10901;DHT22;5503;53.208;10.392;2022-09-09T02:18:38;13.50;99.90
10901;DHT22;5503;53.208;10.392;2022-09-09T02:21:06;13.50;99.90
10901;DHT22;5503;53.208;10.392;2022-09-09T02:23:34;13.50;99.90
10901;DHT22;5503;53.208;10.392;2022-09-09T02:26:01;13.40;99.90
10901;DHT22;5503;53.208;10.392;2022-09-09T02:30:56;13.40;99.90
10901;DHT22;5503;53.208;10.392;2022-09-09T02:33:26;13.40;99.90
10901;DHT22;5503;53.208;10.392;2022-09-09T02:35:53;13.40;99.90
10901;DHT22;5503;53.208;10.392;2022-09-09T02:38:27;13.40;99.90
10901;DHT22;5503;53.208;10.392;2022-09-09T02:40:55;13.30;99.90
10901;DHT22;5503;53.208;10.392;2022-09-09T02:43:21;13.30;99.90
10901;DHT22;5503;53.208;10.392;2022-09-09T02:45:50;13.30;99.90
10901;DHT22;5503;53.208;10.392;2022-09-09T02:48:20;13.20;99.90
10901;DHT22;5503;53.208;10.392;2022-09-09T02:50:52;13.20;99.90
10901;DHT22;5503;53.208;10.392;2022-09-09T02:53:22;13.20;99.90
10901;DHT22;5503;53.208;10.392;2022-09-09T02:55:51;13.30;99.90
10901;DHT22;5503;53.208;10.392;2022-09-09T02:58:21;13.20;99.90
10901;DHT22;5503;53.208;10.392;2022-09-09T03:00:49;13.20;99.90
10901;DHT22;5503;53.208;10.392;2022-09-09T03:03:16;13.20;99.90
10901;DHT22;5503;53.208;10.392;2022-09-09T03:05:43;13.20;99.90
10901;DHT22;5503;53.208;10.392;2022-09-09T03:08:11;13.20;99.90
10901;DHT22;5503;53.208;10.392;2022-09-09T03:10:39;13.20;99.90
10901;DHT22;5503;53.208;10.392;2022-09-09T03:13:05;13.20;99.90
10901;DHT22;5503;53.208;10.392;2022-09-09T03:15:33;15.70;99.90
10901;DHT22;5503;53.208;10.392;2022-09-09T03:18:00;13.10;99.90
10901;DHT22;5503;53.208;10.392;2022-09-09T03:20:28;13.10;99.90
10901;DHT22;5503;53.208;10.392;2022-09-09T03:22:55;13.00;99.90
10901;DHT22;5503;53.208;10.392;2022-09-09T03:25:23;12.90;99.90
10901;DHT22;5503;53.208;10.392;2022-09-09T03:27:51;13.00;99.90
10901;DHT22;5503;53.208;10.392;2022-09-09T03:30:19;13.00;99.90
10901;DHT22;5503;53.208;10.392;2022-09-09T03:32:46;13.00;99.90
10901;DHT22;5503;53.208;10.392;2022-09-09T03:35:13;13.00;99.90
10901;DHT22;5503;53.208;10.392;2022-09-09T03:37:40;13.00;99.90
10901;DHT22;5503;53.208;10.392;2022-09-09T03:40:07;13.00;99.90
10901;DHT22;5503;53.208;10.392;2022-09-09T03:42:36;13.00;99.90
10901;DHT22;5503;53.208;10.392;2022-09-09T03:45:03;13.00;99.90
10901;DHT22;5503;53.208;10.392;2022-09-09T03:47:30;13.00;99.90
10901;DHT22;5503;53.208;10.392;2022-09-09T03:49:57;12.90;99.90
10901;DHT22;5503;53.208;10.392;2022-09-09T03:52:23;12.90;99.90
10901;DHT22;5503;53.208;10.392;2022-09-09T03:54:51;12.90;99.90
10901;DHT22;5503;53.208;10.392;2022-09-09T03:57:18;14.90;99.90
10901;DHT22;5503;53.208;10.392;2022-09-09T03:59:46;13.00;99.90
10901;DHT22;5503;53.208;10.392;2022-09-09T04:02:13;14.60;99.90
10901;DHT22;5503;53.208;10.392;2022-09-09T04:04:40;12.90;99.90
10901;DHT22;5503;53.208;10.392;2022-09-09T04:07:07;12.90;99.90
10901;DHT22;5503;53.208;10.392;2022-09-09T04:09:34;12.80;99.90
10901;DHT22;5503;53.208;10.392;2022-09-09T04:12:01;12.80;99.90
10901;DHT22;5503;53.208;10.392;2022-09-09T04:14:27;12.80;99.90
10901;DHT22;5503;53.208;10.392;2022-09-09T04:16:55;12.90;99.90
10901;DHT22;5503;53.208;10.392;2022-09-09T04:19:22;15.90;99.90
10901;DHT22;5503;53.208;10.392;2022-09-09T04:21:49;12.90;99.90
10901;DHT22;5503;53.208;10.392;2022-09-09T04:24:17;13.00;99.90
10901;DHT22;5503;53.208;10.392;2022-09-09T04:26:44;12.90;99.90
10901;DHT22;5503;53.208;10.392;2022-09-09T04:29:12;13.00;99.90
10901;DHT22;5503;53.208;10.392;2022-09-09T04:31:39;13.00;99.90
10901;DHT22;5503;53.208;10.392;2022-09-09T04:34:08;13.00;99.90
10901;DHT22;5503;53.208;10.392;2022-09-09T04:36:35;12.90;99.90
10901;DHT22;5503;53.208;10.392;2022-09-09T04:39:02;12.90;99.90
10901;DHT22;5503;53.208;10.392;2022-09-09T04:41:29;12.90;99.90
10901;DHT22;5503;53.208;10.392;2022-09-09T04:43:56;13.00;99.90
10901;DHT22;5503;53.208;10.392;2022-09-09T04:46:24;13.00;99.90
10901;DHT22;5503;53.208;10.392;2022-09-09T04:48:50;13.00;99.90
10901;DHT22;5503;53.208;10.392;2022-09-09T04:51:19;13.00;99.90
10901;DHT22;5503;53.208;10.392;2022-09-09T04:53:46;13.00;99.90
10901;DHT22;5503;53.208;10.392;2022-09-09T04:56:14;13.00;99.90
10901;DHT22;5503;53.208;10.392;2022-09-09T04:58:41;17.00;99.90
10901;DHT22;5503;53.208;10.392;2022-09-09T05:01:09;13.10;99.90
10901;DHT22;5503;53.208;10.392;2022-09-09T05:03:36;13.20;99.90
10901;DHT22;5503;53.208;10.392;2022-09-09T05:06:04;13.20;99.90
10901;DHT22;5503;53.208;10.392;2022-09-09T05:08:33;13.30;99.90
10901;DHT22;5503;53.208;10.392;2022-09-09T05:10:59;13.30;99.90
10901;DHT22;5503;53.208;10.392;2022-09-09T05:13:26;13.30;99.90
10901;DHT22;5503;53.208;10.392;2022-09-09T05:15:53;13.30;99.90
10901;DHT22;5503;53.208;10.392;2022-09-09T05:18:20;13.30;99.90
10901;DHT22;5503;53.208;10.392;2022-09-09T05:20:47;13.20;99.90
10901;DHT22;5503;53.208;10.392;2022-09-09T05:23:14;13.30;99.90
10901;DHT22;5503;53.208;10.392;2022-09-09T05:25:43;13.20;99.90
10901;DHT22;5503;53.208;10.392;2022-09-09T05:28:12;13.20;99.90
10901;DHT22;5503;53.208;10.392;2022-09-09T05:30:38;13.30;99.90
10901;DHT22;5503;53.208;10.392;2022-09-09T05:33:05;13.30;99.90
10901;DHT22;5503;53.208;10.392;2022-09-09T05:35:34;13.30;99.90
10901;DHT22;5503;53.208;10.392;2022-09-09T05:38:01;13.50;99.90
10901;DHT22;5503;53.208;10.392;2022-09-09T05:40:27;13.50;99.90
10901;DHT22;5503;53.208;10.392;2022-09-09T05:42:56;13.50;99.90
10901;DHT22;5503;53.208;10.392;2022-09-09T05:45:25;13.60;99.90
10901;DHT22;5503;53.208;10.392;2022-09-09T05:47:52;12.30;99.90
10901;DHT22;5503;53.208;10.392;2022-09-09T05:50:20;13.60;99.90
10901;DHT22;5503;53.208;10.392;2022-09-09T05:52:46;13.70;99.90
10901;DHT22;5503;53.208;10.392;2022-09-09T05:55:15;14.70;99.90
10901;DHT22;5503;53.208;10.392;2022-09-09T05:57:41;13.80;99.90
10901;DHT22;5503;53.208;10.392;2022-09-09T06:00:10;13.80;99.90
10901;DHT22;5503;53.208;10.392;2022-09-09T06:02:40;13.90;99.90
10901;DHT22;5503;53.208;10.392;2022-09-09T06:05:07;13.90;99.90
10901;DHT22;5503;53.208;10.392;2022-09-09T06:07:33;13.90;99.90
10901;DHT22;5503;53.208;10.392;2022-09-09T06:10:00;13.90;99.90
10901;DHT22;5503;53.208;10.392;2022-09-09T06:12:27;13.90;99.90
10901;DHT22;5503;53.208;10.392;2022-09-09T06:14:54;13.80;99.90
10901;DHT22;5503;53.208;10.392;2022-09-09T06:17:22;14.00;99.90
10901;DHT22;5503;53.208;10.392;2022-09-09T06:19:48;14.10;99.90
10901;DHT22;5503;53.208;10.392;2022-09-09T06:22:16;14.10;99.90
10901;DHT22;5503;53.208;10.392;2022-09-09T06:24:43;14.00;99.90
10901;DHT22;5503;53.208;10.392;2022-09-09T06:27:10;14.20;99.90
10901;DHT22;5503;53.208;10.392;2022-09-09T06:29:39;14.20;99.90
10901;DHT22;5503;53.208;10.392;2022-09-09T06:32:05;14.20;99.90
10901;DHT22;5503;53.208;10.392;2022-09-09T06:34:35;14.30;99.90
10901;DHT22;5503;53.208;10.392;2022-09-09T06:37:01;14.30;99.90
10901;DHT22;5503;53.208;10.392;2022-09-09T06:39:28;14.30;99.90
10901;DHT22;5503;53.208;10.392;2022-09-09T06:41:55;14.40;99.90
10901;DHT22;5503;53.208;10.392;2022-09-09T06:44:23;14.30;99.90
10901;DHT22;5503;53.208;10.392;2022-09-09T06:46:52;14.40;99.90
10901;DHT22;5503;53.208;10.392;2022-09-09T06:49:18;14.50;99.90
10901;DHT22;5503;53.208;10.392;2022-09-09T06:51:46;14.50;99.90
10901;DHT22;5503;53.208;10.392;2022-09-09T06:54:14;14.50;99.90
10901;DHT22;5503;53.208;10.392;2022-09-09T06:56:41;14.40;99.90
10901;DHT22;5503;53.208;10.392;2022-09-09T06:59:10;14.40;99.90
10901;DHT22;5503;53.208;10.392;2022-09-09T07:01:38;14.50;99.90
10901;DHT22;5503;53.208;10.392;2022-09-09T07:04:06;14.50;99.90
10901;DHT22;5503;53.208;10.392;2022-09-09T07:06:35;14.40;99.90
10901;DHT22;5503;53.208;10.392;2022-09-09T07:09:04;14.60;99.90
10901;DHT22;5503;53.208;10.392;2022-09-09T07:11:32;14.70;99.90
10901;DHT22;5503;53.208;10.392;2022-09-09T07:13:59;18.80;99.90
10901;DHT22;5503;53.208;10.392;2022-09-09T07:16:26;14.80;99.90
10901;DHT22;5503;53.208;10.392;2022-09-09T07:18:54;14.90;99.90
10901;DHT22;5503;53.208;10.392;2022-09-09T07:21:23;15.00;99.90
10901;DHT22;5503;53.208;10.392;2022-09-09T07:23:51;15.20;99.90
10901;DHT22;5503;53.208;10.392;2022-09-09T07:26:20;16.90;99.90
10901;DHT22;5503;53.208;10.392;2022-09-09T07:28:47;15.40;99.90
10901;DHT22;5503;53.208;10.392;2022-09-09T07:31:15;15.40;99.90
10901;DHT22;5503;53.208;10.392;2022-09-09T07:33:42;15.50;99.90
10901;DHT22;5503;53.208;10.392;2022-09-09T07:36:10;16.10;99.90
10901;DHT22;5503;53.208;10.392;2022-09-09T07:38:38;15.80;99.90
10901;DHT22;5503;53.208;10.392;2022-09-09T07:41:06;19.40;99.90
10901;DHT22;5503;53.208;10.392;2022-09-09T07:43:38;17.20;99.90
10901;DHT22;5503;53.208;10.392;2022-09-09T07:46:05;16.10;99.90
10901;DHT22;5503;53.208;10.392;2022-09-09T07:48:32;16.10;99.90
10901;DHT22;5503;53.208;10.392;2022-09-09T07:51:08;16.10;99.90
10901;DHT22;5503;53.208;10.392;2022-09-09T07:53:36;16.20;99.90
10901;DHT22;5503;53.208;10.392;2022-09-09T07:56:04;17.70;99.90
10901;DHT22;5503;53.208;10.392;2022-09-09T07:58:31;16.20;99.90
10901;DHT22;5503;53.208;10.392;2022-09-09T08:00:59;16.20;99.90
10901;DHT22;5503;53.208;10.392;2022-09-09T08:03:26;16.30;99.90
10901;DHT22;5503;53.208;10.392;2022-09-09T08:05:52;20.70;99.90
10901;DHT22;5503;53.208;10.392;2022-09-09T08:08:19;20.30;99.90
10901;DHT22;5503;53.208;10.392;2022-09-09T08:10:46;16.40;99.90
10901;DHT22;5503;53.208;10.392;2022-09-09T08:13:12;16.50;99.90
10901;DHT22;5503;53.208;10.392;2022-09-09T08:15:39;16.50;99.90
10901;DHT22;5503;53.208;10.392;2022-09-09T08:18:08;16.10;99.90
10901;DHT22;5503;53.208;10.392;2022-09-09T08:20:35;16.60;99.90
10901;DHT22;5503;53.208;10.392;2022-09-09T08:23:02;20.70;99.90
10901;DHT22;5503;53.208;10.392;2022-09-09T08:25:30;16.70;99.90
10901;DHT22;5503;53.208;10.392;2022-09-09T08:27:56;19.50;99.90
10901;DHT22;5503;53.208;10.392;2022-09-09T08:30:23;16.80;99.90
10901;DHT22;5503;53.208;10.392;2022-09-09T08:32:50;17.20;99.90
10901;DHT22;5503;53.208;10.392;2022-09-09T08:35:18;19.50;99.90
10901;DHT22;5503;53.208;10.392;2022-09-09T08:37:45;18.90;99.90
10901;DHT22;5503;53.208;10.392;2022-09-09T08:40:13;16.80;99.90
10901;DHT22;5503;53.208;10.392;2022-09-09T08:42:46;16.90;99.90
10901;DHT22;5503;53.208;10.392;2022-09-09T08:45:31;20.90;99.90
10901;DHT22;5503;53.208;10.392;2022-09-09T08:48:02;17.20;99.90
10901;DHT22;5503;53.208;10.392;2022-09-09T08:50:32;19.70;99.90
10901;DHT22;5503;53.208;10.392;2022-09-09T08:53:01;20.90;99.90
10901;DHT22;5503;53.208;10.392;2022-09-09T08:55:33;17.40;99.90
10901;DHT22;5503;53.208;10.392;2022-09-09T08:58:04;17.40;99.90
10901;DHT22;5503;53.208;10.392;2022-09-09T09:00:34;21.40;99.90
10901;DHT22;5503;53.208;10.392;2022-09-09T09:03:06;18.20;99.90
10901;DHT22;5503;53.208;10.392;2022-09-09T09:05:37;17.90;99.90
10901;DHT22;5503;53.208;10.392;2022-09-09T09:08:08;18.20;99.90
10901;DHT22;5503;53.208;10.392;2022-09-09T09:10:42;18.30;99.90
10901;DHT22;5503;53.208;10.392;2022-09-09T09:13:15;18.50;99.90
10901;DHT22;5503;53.208;10.392;2022-09-09T09:15:43;21.50;99.90
10901;DHT22;5503;53.208;10.392;2022-09-09T09:18:12;22.00;99.90
10901;DHT22;5503;53.208;10.392;2022-09-09T09:20:45;18.60;99.90
10901;DHT22;5503;53.208;10.392;2022-09-09T09:23:15;20.60;99.90
10901;DHT22;5503;53.208;10.392;2022-09-09T09:25:43;18.50;99.90
10901;DHT22;5503;53.208;10.392;2022-09-09T09:28:11;20.20;99.90
10901;DHT22;5503;53.208;10.392;2022-09-09T09:30:43;22.80;99.90
10901;DHT22;5503;53.208;10.392;2022-09-09T09:33:14;18.50;99.90
10901;DHT22;5503;53.208;10.392;2022-09-09T09:35:45;18.50;99.90
10901;DHT22;5503;53.208;10.392;2022-09-09T09:38:14;22.50;99.90
10901;DHT22;5503;53.208;10.392;2022-09-09T09:40:48;19.10;99.90
10901;DHT22;5503;53.208;10.392;2022-09-09T09:43:18;21.70;99.90
10901;DHT22;5503;53.208;10.392;2022-09-09T09:45:45;22.60;99.90
10901;DHT22;5503;53.208;10.392;2022-09-09T09:48:12;18.70;99.90
10901;DHT22;5503;53.208;10.392;2022-09-09T09:50:46;19.50;99.90
10901;DHT22;5503;53.208;10.392;2022-09-09T09:53:20;18.90;99.90
10901;DHT22;5503;53.208;10.392;2022-09-09T09:55:48;19.00;99.90
10901;DHT22;5503;53.208;10.392;2022-09-09T09:58:16;20.50;99.90
10901;DHT22;5503;53.208;10.392;2022-09-09T10:00:47;19.80;99.90
10901;DHT22;5503;53.208;10.392;2022-09-09T10:03:19;19.10;99.90
10901;DHT22;5503;53.208;10.392;2022-09-09T10:05:46;22.80;99.90
10901;DHT22;5503;53.208;10.392;2022-09-09T10:08:14;19.10;99.90
10901;DHT22;5503;53.208;10.392;2022-09-09T10:11:02;19.10;99.90
10901;DHT22;5503;53.208;10.392;2022-09-09T10:13:39;19.10;99.90
10901;DHT22;5503;53.208;10.392;2022-09-09T10:16:31;19.10;99.90
10901;DHT22;5503;53.208;10.392;2022-09-09T10:19:03;19.30;99.90
10901;DHT22;5503;53.208;10.392;2022-09-09T10:21:43;19.60;99.90
10901;DHT22;5503;53.208;10.392;2022-09-09T10:27:19;20.10;99.90
10901;DHT22;5503;53.208;10.392;2022-09-09T10:29:56;20.40;99.90
10901;DHT22;5503;53.208;10.392;2022-09-09T10:35:12;20.60;99.90
10901;DHT22;5503;53.208;10.392;2022-09-09T10:37:42;20.70;99.90
10901;DHT22;5503;53.208;10.392;2022-09-09T10:40:17;20.80;80.70
10901;DHT22;5503;53.208;10.392;2022-09-09T10:42:48;20.90;80.20
10901;DHT22;5503;53.208;10.392;2022-09-09T10:45:17;21.10;86.00
10901;DHT22;5503;53.208;10.392;2022-09-09T10:47:47;21.30;86.50
10901;DHT22;5503;53.208;10.392;2022-09-09T10:50:21;21.60;78.20
10901;DHT22;5503;53.208;10.392;2022-09-09T10:52:54;21.70;33.40
10901;DHT22;5503;53.208;10.392;2022-09-09T10:55:27;21.70;32.80
10901;DHT22;5503;53.208;10.392;2022-09-09T10:58:02;21.30;30.40
10901;DHT22;5503;53.208;10.392;2022-09-09T11:00:31;21.10;36.80
10901;DHT22;5503;53.208;10.392;2022-09-09T11:03:03;21.00;53.30
10901;DHT22;5503;53.208;10.392;2022-09-09T11:05:34;20.70;71.20
10901;DHT22;5503;53.208;10.392;2022-09-09T11:08:03;20.50;94.90
10901;DHT22;5503;53.208;10.392;2022-09-09T11:10:34;20.50;95.70
10901;DHT22;5503;53.208;10.392;2022-09-09T11:13:08;20.50;88.80
10901;DHT22;5503;53.208;10.392;2022-09-09T11:15:39;20.60;77.50
10901;DHT22;5503;53.208;10.392;2022-09-09T11:18:08;20.60;76.90
10901;DHT22;5503;53.208;10.392;2022-09-09T11:20:37;17.90;89.50
10901;DHT22;5503;53.208;10.392;2022-09-09T11:23:05;20.40;81.90
10901;DHT22;5503;53.208;10.392;2022-09-09T11:25:36;20.30;92.30
10901;DHT22;5503;53.208;10.392;2022-09-09T11:30:57;20.10;99.90
10901;DHT22;5503;53.208;10.392;2022-09-09T11:33:40;20.10;96.40
10901;DHT22;5503;53.208;10.392;2022-09-09T11:36:16;20.20;83.00
10901;DHT22;5503;53.208;10.392;2022-09-09T11:38:49;20.00;86.60
10901;DHT22;5503;53.208;10.392;2022-09-09T11:41:18;19.90;93.70
10901;DHT22;5503;53.208;10.392;2022-09-09T11:43:46;19.80;99.40
10901;DHT22;5503;53.208;10.392;2022-09-09T11:46:15;19.70;99.90
10901;DHT22;5503;53.208;10.392;2022-09-09T11:48:44;19.50;99.90
10901;DHT22;5503;53.208;10.392;2022-09-09T11:51:13;19.30;99.90
10901;DHT22;5503;53.208;10.392;2022-09-09T11:53:51;19.10;99.90
10901;DHT22;5503;53.208;10.392;2022-09-09T11:56:25;18.90;99.90
10901;DHT22;5503;53.208;10.392;2022-09-09T11:58:59;18.70;99.90
10901;DHT22;5503;53.208;10.392;2022-09-09T12:01:36;18.70;99.90
10901;DHT22;5503;53.208;10.392;2022-09-09T12:04:14;18.60;99.90
10901;DHT22;5503;53.208;10.392;2022-09-09T12:06:42;18.60;99.90
10901;DHT22;5503;53.208;10.392;2022-09-09T12:09:15;18.50;99.90
10901;DHT22;5503;53.208;10.392;2022-09-09T12:11:43;18.50;99.90
10901;DHT22;5503;53.208;10.392;2022-09-09T12:14:18;18.50;99.90
10901;DHT22;5503;53.208;10.392;2022-09-09T12:16:47;18.40;99.90
10901;DHT22;5503;53.208;10.392;2022-09-09T12:19:16;18.40;99.90
10901;DHT22;5503;53.208;10.392;2022-09-09T12:21:45;18.40;99.90
10901;DHT22;5503;53.208;10.392;2022-09-09T12:24:16;18.50;99.90
10901;DHT22;5503;53.208;10.392;2022-09-09T12:26:46;18.60;99.90
10901;DHT22;5503;53.208;10.392;2022-09-09T12:29:18;18.70;99.90
10901;DHT22;5503;53.208;10.392;2022-09-09T12:31:50;20.10;99.90
10901;DHT22;5503;53.208;10.392;2022-09-09T12:34:24;19.00;99.90
10901;DHT22;5503;53.208;10.392;2022-09-09T12:37:03;19.00;99.90
10901;DHT22;5503;53.208;10.392;2022-09-09T12:39:32;19.10;99.90
10901;DHT22;5503;53.208;10.392;2022-09-09T12:41:59;19.00;99.90
10901;DHT22;5503;53.208;10.392;2022-09-09T12:44:26;19.10;99.90
10901;DHT22;5503;53.208;10.392;2022-09-09T12:46:55;19.10;99.90
10901;DHT22;5503;53.208;10.392;2022-09-09T12:49:26;19.30;99.90
10901;DHT22;5503;53.208;10.392;2022-09-09T12:51:54;19.30;99.90
10901;DHT22;5503;53.208;10.392;2022-09-09T12:54:22;19.30;99.90
10901;DHT22;5503;53.208;10.392;2022-09-09T12:56:49;19.50;99.90
10901;DHT22;5503;53.208;10.392;2022-09-09T12:59:21;19.70;99.90
10901;DHT22;5503;53.208;10.392;2022-09-09T13:01:55;19.90;99.90
10901;DHT22;5503;53.208;10.392;2022-09-09T13:04:22;20.10;96.00
10901;DHT22;5503;53.208;10.392;2022-09-09T13:06:49;20.30;99.90
10901;DHT22;5503;53.208;10.392;2022-09-09T13:09:17;20.40;99.90
10901;DHT22;5503;53.208;10.392;2022-09-09T13:11:45;20.40;99.20
10901;DHT22;5503;53.208;10.392;2022-09-09T13:14:13;20.40;91.90
10901;DHT22;5503;53.208;10.392;2022-09-09T13:16:53;20.40;90.00
10901;DHT22;5503;53.208;10.392;2022-09-09T13:19:22;20.40;89.00
10901;DHT22;5503;53.208;10.392;2022-09-09T13:21:51;20.40;83.40
10901;DHT22;5503;53.208;10.392;2022-09-09T13:24:26;20.30;66.90
10901;DHT22;5503;53.208;10.392;2022-09-09T13:26:55;20.30;73.90
10901;DHT22;5503;53.208;10.392;2022-09-09T13:29:22;20.20;78.70
10901;DHT22;5503;53.208;10.392;2022-09-09T13:31:49;20.10;71.10
10901;DHT22;5503;53.208;10.392;2022-09-09T13:34:26;19.90;80.10
10901;DHT22;5503;53.208;10.392;2022-09-09T13:36:54;19.90;81.10
10901;DHT22;5503;53.208;10.392;2022-09-09T13:39:22;19.80;90.20
10901;DHT22;5503;53.208;10.392;2022-09-09T13:41:48;19.70;90.30
10901;DHT22;5503;53.208;10.392;2022-09-09T13:44:17;19.60;93.10
10901;DHT22;5503;53.208;10.392;2022-09-09T13:46:44;19.60;91.80
10901;DHT22;5503;53.208;10.392;2022-09-09T13:49:19;20.40;95.10
10901;DHT22;5503;53.208;10.392;2022-09-09T13:51:47;19.30;99.90
10901;DHT22;5503;53.208;10.392;2022-09-09T13:54:17;19.20;99.90
10901;DHT22;5503;53.208;10.392;2022-09-09T13:56:44;19.10;99.90
10901;DHT22;5503;53.208;10.392;2022-09-09T13:59:11;19.10;99.90
10901;DHT22;5503;53.208;10.392;2022-09-09T14:01:38;19.00;99.90
10901;DHT22;5503;53.208;10.392;2022-09-09T14:04:05;18.80;92.20
10901;DHT22;5503;53.208;10.392;2022-09-09T14:06:32;18.60;98.70
10901;DHT22;5503;53.208;10.392;2022-09-09T14:09:01;18.40;99.90
10901;DHT22;5503;53.208;10.392;2022-09-09T14:11:28;18.20;99.90
10901;DHT22;5503;53.208;10.392;2022-09-09T14:13:55;18.10;99.90
10901;DHT22;5503;53.208;10.392;2022-09-09T14:16:22;17.90;99.90
10901;DHT22;5503;53.208;10.392;2022-09-09T14:18:49;17.90;99.90
10901;DHT22;5503;53.208;10.392;2022-09-09T14:21:16;17.80;99.90
10901;DHT22;5503;53.208;10.392;2022-09-09T14:23:42;17.90;99.90
10901;DHT22;5503;53.208;10.392;2022-09-09T14:26:11;17.70;99.90
10901;DHT22;5503;53.208;10.392;2022-09-09T14:28:38;17.70;99.90
10901;DHT22;5503;53.208;10.392;2022-09-09T14:31:06;17.60;99.90
10901;DHT22;5503;53.208;10.392;2022-09-09T14:33:33;17.40;99.10
10901;DHT22;5503;53.208;10.392;2022-09-09T14:36:02;17.40;99.40
10901;DHT22;5503;53.208;10.392;2022-09-09T14:38:30;17.30;99.90
10901;DHT22;5503;53.208;10.392;2022-09-09T14:40:57;17.40;99.90
10901;DHT22;5503;53.208;10.392;2022-09-09T14:43:26;17.40;99.90
10901;DHT22;5503;53.208;10.392;2022-09-09T14:45:53;17.40;99.90
10901;DHT22;5503;53.208;10.392;2022-09-09T14:48:20;17.40;99.90
10901;DHT22;5503;53.208;10.392;2022-09-09T14:50:47;17.30;97.80
10901;DHT22;5503;53.208;10.392;2022-09-09T14:53:16;17.20;99.90
10901;DHT22;5503;53.208;10.392;2022-09-09T14:55:43;17.10;99.90
10901;DHT22;5503;53.208;10.392;2022-09-09T14:58:12;17.10;99.90
10901;DHT22;5503;53.208;10.392;2022-09-09T15:00:40;17.10;99.90
10901;DHT22;5503;53.208;10.392;2022-09-09T15:03:07;17.20;99.90
10901;DHT22;5503;53.208;10.392;2022-09-09T15:05:36;17.20;99.90
10901;DHT22;5503;53.208;10.392;2022-09-09T15:08:03;17.20;99.90
10901;DHT22;5503;53.208;10.392;2022-09-09T15:10:30;17.20;99.90
10901;DHT22;5503;53.208;10.392;2022-09-09T15:12:57;17.20;99.90
10901;DHT22;5503;53.208;10.392;2022-09-09T15:15:24;17.30;99.90
10901;DHT22;5503;53.208;10.392;2022-09-09T15:17:53;17.30;99.90
10901;DHT22;5503;53.208;10.392;2022-09-09T15:20:20;17.40;99.90
10901;DHT22;5503;53.208;10.392;2022-09-09T15:22:47;17.40;99.90
10901;DHT22;5503;53.208;10.392;2022-09-09T15:25:14;17.40;99.90
10901;DHT22;5503;53.208;10.392;2022-09-09T15:27:43;17.50;99.90
10901;DHT22;5503;53.208;10.392;2022-09-09T15:30:10;17.50;99.90
10901;DHT22;5503;53.208;10.392;2022-09-09T15:32:37;17.60;99.90
10901;DHT22;5503;53.208;10.392;2022-09-09T15:35:07;17.60;99.90
10901;DHT22;5503;53.208;10.392;2022-09-09T15:37:34;17.60;99.90
10901;DHT22;5503;53.208;10.392;2022-09-09T15:40:01;17.60;99.90
10901;DHT22;5503;53.208;10.392;2022-09-09T15:42:28;17.60;99.90
10901;DHT22;5503;53.208;10.392;2022-09-09T15:44:55;17.40;99.90
10901;DHT22;5503;53.208;10.392;2022-09-09T15:47:22;17.80;99.90
10901;DHT22;5503;53.208;10.392;2022-09-09T15:49:49;17.80;99.90
10901;DHT22;5503;53.208;10.392;2022-09-09T15:52:17;17.80;99.90
10901;DHT22;5503;53.208;10.392;2022-09-09T15:54:44;17.80;99.90